sensor_id;sensor_type;location;lat;lon;timestamp;pressure;altitude;pressure_sealevel;temperature;humidity
44920;BME280;30655;53.094;6.072;2022-12-18T00:02:07;102668.53;;;-3.75;97.06
44920;BME280;30655;53.094;6.072;2022-12-18T00:04:43;102919.75;;;-2.32;97.52
44920;BME280;30655;53.094;6.072;2022-12-18T00:10:56;102917.13;;;-2.32;97.31
44920;BME280;30655;53.094;6.072;2022-12-18T00:13:46;102682.38;;;-3.83;97.25
44920;BME280;30655;53.094;6.072;2022-12-18T00:16:39;102674.47;;;-3.83;97.75
44920;BME280;30655;53.094;6.072;2022-12-18T00:22:35;102910.75;;;-2.50;97.87
44920;BME280;30655;53.094;6.072;2022-12-18T00:25:13;102925.41;;;-2.46;97.50
44920;BME280;30655;53.094;6.072;2022-12-18T00:27:52;102929.41;;;-2.51;97.99
44920;BME280;30655;53.094;6.072;2022-12-18T00:34:14;102697.31;;;-3.93;97.20
44920;BME280;30655;53.094;6.072;2022-12-18T00:36:56;102776.63;;;-3.52;97.17
44920;BME280;30655;53.094;6.072;2022-12-18T00:42:52;102932.63;;;-2.48;97.25
44920;BME280;30655;53.094;6.072;2022-12-18T00:45:26;102931.09;;;-2.50;97.50
44920;BME280;30655;53.094;6.072;2022-12-18T00:48:07;102927.63;;;-2.51;97.77
44920;BME280;30655;53.094;6.072;2022-12-18T00:51:14;102678.91;;;-4.04;97.60
44920;BME280;30655;53.094;6.072;2022-12-18T00:53:54;102740.66;;;-3.84;97.30
44920;BME280;30655;53.094;6.072;2022-12-18T00:59:47;102657.31;;;-4.30;97.14
44920;BME280;30655;53.094;6.072;2022-12-18T01:02:32;102925.47;;;-2.57;97.02
44920;BME280;30655;53.094;6.072;2022-12-18T01:05:05;102868.00;;;-2.96;97.07
44920;BME280;30655;53.094;6.072;2022-12-18T01:07:37;102930.72;;;-2.67;97.95
44920;BME280;30655;53.094;6.072;2022-12-18T01:10:18;102797.56;;;-3.60;97.12
44920;BME280;30655;53.094;6.072;2022-12-18T01:13:20;102889.88;;;-3.15;97.55
44920;BME280;30655;53.094;6.072;2022-12-18T01:16:10;102947.63;;;-2.79;97.62
44920;BME280;30655;53.094;6.072;2022-12-18T01:18:54;102698.06;;;-4.23;97.54
44920;BME280;30655;53.094;6.072;2022-12-18T01:21:26;102965.56;;;-2.82;97.66
44920;BME280;30655;53.094;6.072;2022-12-18T01:24:07;102944.63;;;-2.95;97.38
44920;BME280;30655;53.094;6.072;2022-12-18T01:27:05;102690.69;;;-4.40;97.28
44920;BME280;30655;53.094;6.072;2022-12-18T01:29:41;102906.06;;;-3.09;97.59
44920;BME280;30655;53.094;6.072;2022-12-18T01:32:36;102896.25;;;-3.18;96.64
44920;BME280;30655;53.094;6.072;2022-12-18T01:35:08;102669.00;;;-4.44;96.51
44920;BME280;30655;53.094;6.072;2022-12-18T01:37:37;102946.38;;;-2.84;96.95
44920;BME280;30655;53.094;6.072;2022-12-18T01:40:18;102896.78;;;-3.24;96.50
44920;BME280;30655;53.094;6.072;2022-12-18T01:42:59;102893.69;;;-3.29;96.52
44920;BME280;30655;53.094;6.072;2022-12-18T01:45:30;102678.75;;;-4.55;96.14
44920;BME280;30655;53.094;6.072;2022-12-18T01:48:06;102950.13;;;-2.98;96.61
44920;BME280;30655;53.094;6.072;2022-12-18T01:50:38;102773.38;;;-4.08;96.18
44920;BME280;30655;53.094;6.072;2022-12-18T01:53:24;102901.72;;;-3.62;96.20
44920;BME280;30655;53.094;6.072;2022-12-18T01:55:57;102725.41;;;-4.56;95.96
44920;BME280;30655;53.094;6.072;2022-12-18T01:58:43;102759.56;;;-4.43;95.98
44920;BME280;30655;53.094;6.072;2022-12-18T02:01:14;102891.63;;;-3.68;95.96
44920;BME280;30655;53.094;6.072;2022-12-18T02:03:45;102888.69;;;-3.75;96.12
44920;BME280;30655;53.094;6.072;2022-12-18T02:06:27;102867.25;;;-4.04;95.58
44920;BME280;30655;53.094;6.072;2022-12-18T02:09:06;102769.78;;;-4.61;95.99
44920;BME280;30655;53.094;6.072;2022-12-18T02:12:12;102724.03;;;-5.04;95.91
44920;BME280;30655;53.094;6.072;2022-12-18T02:14:55;102976.06;;;-3.44;96.59
44920;BME280;30655;53.094;6.072;2022-12-18T02:17:30;102866.78;;;-4.09;96.00
44920;BME280;30655;53.094;6.072;2022-12-18T02:20:19;102876.41;;;-4.19;96.69
44920;BME280;30655;53.094;6.072;2022-12-18T02:23:11;102983.41;;;-3.59;96.62
44920;BME280;30655;53.094;6.072;2022-12-18T02:26:19;102897.75;;;-4.00;96.54
44920;BME280;30655;53.094;6.072;2022-12-18T02:28:51;102906.88;;;-4.04;96.19
44920;BME280;30655;53.094;6.072;2022-12-18T02:31:26;102976.22;;;-3.68;96.76
44920;BME280;30655;53.094;6.072;2022-12-18T02:33:55;102804.19;;;-4.62;96.96
44920;BME280;30655;53.094;6.072;2022-12-18T02:36:34;102702.34;;;-5.30;96.23
44920;BME280;30655;53.094;6.072;2022-12-18T02:39:11;102832.84;;;-4.36;96.02
44920;BME280;30655;53.094;6.072;2022-12-18T02:41:49;102913.59;;;-4.00;95.90
44920;BME280;30655;53.094;6.072;2022-12-18T02:44:23;102963.63;;;-3.76;96.57
44920;BME280;30655;53.094;6.072;2022-12-18T02:47:02;102807.09;;;-4.77;96.06
44920;BME280;30655;53.094;6.072;2022-12-18T02:49:55;102962.31;;;-3.81;96.12
44920;BME280;30655;53.094;6.072;2022-12-18T02:52:34;102729.41;;;-5.39;96.00
44920;BME280;30655;53.094;6.072;2022-12-18T02:55:19;102911.22;;;-4.14;95.88
44920;BME280;30655;53.094;6.072;2022-12-18T02:58:03;102953.69;;;-3.95;96.59
44920;BME280;30655;53.094;6.072;2022-12-18T03:00:39;102802.41;;;-4.95;96.08
44920;BME280;30655;53.094;6.072;2022-12-18T03:03:13;102949.09;;;-3.93;96.54
44920;BME280;30655;53.094;6.072;2022-12-18T03:05:57;102875.09;;;-4.47;96.21
44920;BME280;30655;53.094;6.072;2022-12-18T03:08:34;102921.03;;;-4.16;96.23
44920;BME280;30655;53.094;6.072;2022-12-18T03:11:11;102692.00;;;-5.55;96.22
44920;BME280;30655;53.094;6.072;2022-12-18T03:13:47;102744.72;;;-5.22;96.48
44920;BME280;30655;53.094;6.072;2022-12-18T03:16:22;102882.28;;;-4.38;96.21
44920;BME280;30655;53.094;6.072;2022-12-18T03:18:54;102889.34;;;-4.27;96.14
44920;BME280;30655;53.094;6.072;2022-12-18T03:21:35;102731.81;;;-5.25;96.04
44920;BME280;30655;53.094;6.072;2022-12-18T03:24:14;102661.94;;;-5.75;96.06
44920;BME280;30655;53.094;6.072;2022-12-18T03:26:49;102744.25;;;-5.38;96.19
44920;BME280;30655;53.094;6.072;2022-12-18T03:29:22;102943.84;;;-4.04;96.21
44920;BME280;30655;53.094;6.072;2022-12-18T03:32:02;102905.56;;;-4.31;95.74
44920;BME280;30655;53.094;6.072;2022-12-18T03:34:34;102972.44;;;-4.09;96.08
44920;BME280;30655;53.094;6.072;2022-12-18T03:37:06;102944.31;;;-4.10;95.74
44920;BME280;30655;53.094;6.072;2022-12-18T03:39:34;102654.84;;;-5.86;95.34
44920;BME280;30655;53.094;6.072;2022-12-18T03:42:05;102946.72;;;-4.18;95.67
44920;BME280;30655;53.094;6.072;2022-12-18T03:44:41;102809.13;;;-4.91;95.87
44920;BME280;30655;53.094;6.072;2022-12-18T03:47:15;102932.56;;;-4.17;95.72
44920;BME280;30655;53.094;6.072;2022-12-18T03:49:48;102882.03;;;-4.57;95.72
44920;BME280;30655;53.094;6.072;2022-12-18T03:52:21;102926.78;;;-4.22;95.96
44920;BME280;30655;53.094;6.072;2022-12-18T03:54:52;102888.88;;;-4.65;96.04
44920;BME280;30655;53.094;6.072;2022-12-18T03:57:27;102777.34;;;-5.23;95.57
44920;BME280;30655;53.094;6.072;2022-12-18T04:00:06;102946.59;;;-4.27;95.60
44920;BME280;30655;53.094;6.072;2022-12-18T04:02:38;102936.38;;;-4.32;95.96
44920;BME280;30655;53.094;6.072;2022-12-18T04:05:08;102693.88;;;-5.80;95.76
44920;BME280;30655;53.094;6.072;2022-12-18T04:07:38;102918.88;;;-4.44;96.25
44920;BME280;30655;53.094;6.072;2022-12-18T04:10:07;102713.06;;;-5.67;95.74
44920;BME280;30655;53.094;6.072;2022-12-18T04:12:37;102892.09;;;-4.73;95.29
44920;BME280;30655;53.094;6.072;2022-12-18T04:15:10;102934.38;;;-4.40;95.70
44920;BME280;30655;53.094;6.072;2022-12-18T04:17:38;102937.84;;;-4.39;96.23
44920;BME280;30655;53.094;6.072;2022-12-18T04:20:09;102687.50;;;-5.99;95.76
44920;BME280;30655;53.094;6.072;2022-12-18T04:22:36;102760.00;;;-5.60;95.66
44920;BME280;30655;53.094;6.072;2022-12-18T04:25:03;102914.78;;;-4.59;95.75
44920;BME280;30655;53.094;6.072;2022-12-18T04:27:31;102866.75;;;-4.98;95.68
44920;BME280;30655;53.094;6.072;2022-12-18T04:30:01;102950.91;;;-4.49;95.62
44920;BME280;30655;53.094;6.072;2022-12-18T04:32:33;102709.66;;;-5.91;95.81
44920;BME280;30655;53.094;6.072;2022-12-18T04:35:04;102864.41;;;-4.90;95.81
44920;BME280;30655;53.094;6.072;2022-12-18T04:37:33;102914.34;;;-4.53;95.35
44920;BME280;30655;53.094;6.072;2022-12-18T04:40:03;102844.81;;;-5.09;95.42
44920;BME280;30655;53.094;6.072;2022-12-18T04:42:33;102924.63;;;-4.50;95.28
44920;BME280;30655;53.094;6.072;2022-12-18T04:45:00;102936.63;;;-4.46;95.61
44920;BME280;30655;53.094;6.072;2022-12-18T04:47:40;102934.84;;;-4.46;95.46
44920;BME280;30655;53.094;6.072;2022-12-18T04:50:08;102942.00;;;-4.48;95.45
44920;BME280;30655;53.094;6.072;2022-12-18T04:52:39;102940.47;;;-4.50;95.42
44920;BME280;30655;53.094;6.072;2022-12-18T04:55:08;102869.66;;;-4.90;95.45
44920;BME280;30655;53.094;6.072;2022-12-18T04:57:36;102635.59;;;-6.32;95.24
44920;BME280;30655;53.094;6.072;2022-12-18T05:00:05;102908.50;;;-4.92;94.92
44920;BME280;30655;53.094;6.072;2022-12-18T05:02:36;102836.78;;;-5.19;94.88
44920;BME280;30655;53.094;6.072;2022-12-18T05:05:04;102950.78;;;-4.58;94.72
44920;BME280;30655;53.094;6.072;2022-12-18T05:07:33;102670.53;;;-6.30;94.15
44920;BME280;30655;53.094;6.072;2022-12-18T05:10:00;102781.81;;;-5.58;94.54
44920;BME280;30655;53.094;6.072;2022-12-18T05:12:31;102910.41;;;-4.94;94.61
44920;BME280;30655;53.094;6.072;2022-12-18T05:14:58;102916.28;;;-4.90;94.25
44920;BME280;30655;53.094;6.072;2022-12-18T05:17:25;102753.44;;;-6.01;94.18
44920;BME280;30655;53.094;6.072;2022-12-18T05:19:54;102822.88;;;-5.56;94.33
44920;BME280;30655;53.094;6.072;2022-12-18T05:22:21;102735.69;;;-6.10;94.14
44920;BME280;30655;53.094;6.072;2022-12-18T05:24:48;102946.88;;;-4.77;94.34
44920;BME280;30655;53.094;6.072;2022-12-18T05:27:15;102795.44;;;-5.65;94.00
44920;BME280;30655;53.094;6.072;2022-12-18T05:29:42;102946.41;;;-4.82;94.57
44920;BME280;30655;53.094;6.072;2022-12-18T05:32:09;102959.09;;;-4.87;94.01
44920;BME280;30655;53.094;6.072;2022-12-18T05:34:39;102973.56;;;-4.92;94.41
44920;BME280;30655;53.094;6.072;2022-12-18T05:37:09;102979.25;;;-4.86;94.31
44920;BME280;30655;53.094;6.072;2022-12-18T05:39:36;102761.44;;;-6.26;93.97
44920;BME280;30655;53.094;6.072;2022-12-18T05:42:04;102939.59;;;-5.19;93.70
44920;BME280;30655;53.094;6.072;2022-12-18T05:44:35;102980.16;;;-4.98;94.25
44920;BME280;30655;53.094;6.072;2022-12-18T05:47:02;102978.00;;;-5.04;94.49
44920;BME280;30655;53.094;6.072;2022-12-18T05:49:29;102837.75;;;-5.90;93.95
44920;BME280;30655;53.094;6.072;2022-12-18T05:51:56;102917.69;;;-5.43;94.19
44920;BME280;30655;53.094;6.072;2022-12-18T05:54:26;102988.63;;;-5.05;94.39
44920;BME280;30655;53.094;6.072;2022-12-18T05:56:53;102766.13;;;-6.42;93.89
44920;BME280;30655;53.094;6.072;2022-12-18T05:59:20;102757.75;;;-6.47;93.54
44920;BME280;30655;53.094;6.072;2022-12-18T06:01:47;102983.91;;;-5.13;94.12
44920;BME280;30655;53.094;6.072;2022-12-18T06:04:15;102923.00;;;-5.56;94.07
44920;BME280;30655;53.094;6.072;2022-12-18T06:06:42;102837.91;;;-6.04;93.41
44920;BME280;30655;53.094;6.072;2022-12-18T06:09:15;103009.63;;;-5.04;93.83
44920;BME280;30655;53.094;6.072;2022-12-18T06:11:44;102843.69;;;-5.99;93.29
44920;BME280;30655;53.094;6.072;2022-12-18T06:14:11;102968.56;;;-5.19;93.54
44920;BME280;30655;53.094;6.072;2022-12-18T06:16:38;102755.72;;;-6.44;93.41
44920;BME280;30655;53.094;6.072;2022-12-18T06:19:12;102858.00;;;-5.79;93.93
44920;BME280;30655;53.094;6.072;2022-12-18T06:21:40;102936.22;;;-5.45;93.62
44920;BME280;30655;53.094;6.072;2022-12-18T06:24:07;102935.03;;;-5.41;93.71
44920;BME280;30655;53.094;6.072;2022-12-18T06:26:36;102794.78;;;-6.14;93.38
44920;BME280;30655;53.094;6.072;2022-12-18T06:29:05;102813.81;;;-6.11;93.33
44920;BME280;30655;53.094;6.072;2022-12-18T06:31:34;102885.09;;;-5.66;92.90
44920;BME280;30655;53.094;6.072;2022-12-18T06:34:09;102845.13;;;-5.95;93.16
44920;BME280;30655;53.094;6.072;2022-12-18T06:36:37;102907.00;;;-5.42;92.96
44920;BME280;30655;53.094;6.072;2022-12-18T06:39:04;102883.56;;;-5.57;93.11
44920;BME280;30655;53.094;6.072;2022-12-18T06:41:34;102899.00;;;-5.40;93.66
44920;BME280;30655;53.094;6.072;2022-12-18T06:44:08;102976.75;;;-5.11;93.25
44920;BME280;30655;53.094;6.072;2022-12-18T06:46:36;102938.16;;;-5.12;93.13
44920;BME280;30655;53.094;6.072;2022-12-18T06:49:03;102943.22;;;-5.33;93.12
44920;BME280;30655;53.094;6.072;2022-12-18T06:51:32;102820.16;;;-5.89;92.90
44920;BME280;30655;53.094;6.072;2022-12-18T06:54:01;102959.53;;;-5.28;92.90
44920;BME280;30655;53.094;6.072;2022-12-18T06:56:29;102819.81;;;-6.08;92.59
44920;BME280;30655;53.094;6.072;2022-12-18T06:58:56;102860.13;;;-5.84;93.06
44920;BME280;30655;53.094;6.072;2022-12-18T07:01:24;102762.19;;;-6.24;93.18
44920;BME280;30655;53.094;6.072;2022-12-18T07:03:52;102916.69;;;-5.18;92.74
44920;BME280;30655;53.094;6.072;2022-12-18T07:06:24;102856.06;;;-5.53;92.82
44920;BME280;30655;53.094;6.072;2022-12-18T07:08:52;102696.16;;;-6.69;92.97
44920;BME280;30655;53.094;6.072;2022-12-18T07:11:19;102881.78;;;-5.33;92.44
44920;BME280;30655;53.094;6.072;2022-12-18T07:13:51;102695.09;;;-6.42;92.91
44920;BME280;30655;53.094;6.072;2022-12-18T07:16:21;102635.34;;;-6.88;92.31
44920;BME280;30655;53.094;6.072;2022-12-18T07:18:56;102803.25;;;-5.98;92.85
44920;BME280;30655;53.094;6.072;2022-12-18T07:21:24;102818.81;;;-5.95;92.55
44920;BME280;30655;53.094;6.072;2022-12-18T07:23:51;102838.22;;;-5.85;92.80
44920;BME280;30655;53.094;6.072;2022-12-18T07:26:23;102708.50;;;-6.45;92.93
44920;BME280;30655;53.094;6.072;2022-12-18T07:28:54;102752.16;;;-6.19;92.58
44920;BME280;30655;53.094;6.072;2022-12-18T07:31:21;102751.09;;;-6.40;93.15
44920;BME280;30655;53.094;6.072;2022-12-18T07:33:49;102799.66;;;-5.86;92.38
44920;BME280;30655;53.094;6.072;2022-12-18T07:36:19;102708.59;;;-6.47;93.15
44920;BME280;30655;53.094;6.072;2022-12-18T07:38:49;102874.44;;;-5.41;92.93
44920;BME280;30655;53.094;6.072;2022-12-18T07:41:16;102808.47;;;-5.74;92.55
44920;BME280;30655;53.094;6.072;2022-12-18T07:43:44;102794.38;;;-5.86;93.02
44920;BME280;30655;53.094;6.072;2022-12-18T07:46:14;102830.88;;;-5.69;93.02
44920;BME280;30655;53.094;6.072;2022-12-18T07:48:41;102928.38;;;-4.99;92.46
44920;BME280;30655;53.094;6.072;2022-12-18T07:51:12;102669.72;;;-6.55;92.74
44920;BME280;30655;53.094;6.072;2022-12-18T07:53:43;102696.50;;;-6.49;92.34
44920;BME280;30655;53.094;6.072;2022-12-18T07:56:13;102893.88;;;-5.31;92.88
44920;BME280;30655;53.094;6.072;2022-12-18T07:58:57;102843.75;;;-5.42;92.86
44920;BME280;30655;53.094;6.072;2022-12-18T08:01:33;102865.53;;;-5.16;92.97
44920;BME280;30655;53.094;6.072;2022-12-18T08:04:00;102686.56;;;-6.22;92.86
44920;BME280;30655;53.094;6.072;2022-12-18T08:06:34;102745.84;;;-5.71;93.09
44920;BME280;30655;53.094;6.072;2022-12-18T08:09:04;102702.84;;;-5.93;93.18
44920;BME280;30655;53.094;6.072;2022-12-18T08:11:34;102686.41;;;-6.08;92.54
44920;BME280;30655;53.094;6.072;2022-12-18T08:14:04;102911.53;;;-4.63;92.65
44920;BME280;30655;53.094;6.072;2022-12-18T08:16:40;102787.50;;;-5.30;92.57
44920;BME280;30655;53.094;6.072;2022-12-18T08:22:26;102766.50;;;-5.42;93.16
44920;BME280;30655;53.094;6.072;2022-12-18T08:25:20;102647.94;;;-5.98;92.54
44920;BME280;30655;53.094;6.072;2022-12-18T08:28:00;102757.69;;;-5.30;93.01
44920;BME280;30655;53.094;6.072;2022-12-18T08:30:42;102716.94;;;-5.48;92.61
44920;BME280;30655;53.094;6.072;2022-12-18T08:33:47;102652.94;;;-5.95;92.54
44920;BME280;30655;53.094;6.072;2022-12-18T08:36:32;102746.31;;;-5.19;92.78
44920;BME280;30655;53.094;6.072;2022-12-18T08:38:58;102818.84;;;-4.69;92.37
44920;BME280;30655;53.094;6.072;2022-12-18T08:41:30;102697.41;;;-5.46;91.89
44920;BME280;30655;53.094;6.072;2022-12-18T08:43:59;102929.81;;;-4.15;92.90
44920;BME280;30655;53.094;6.072;2022-12-18T08:46:32;102680.97;;;-5.60;92.13
44920;BME280;30655;53.094;6.072;2022-12-18T08:49:05;102920.31;;;-3.96;92.66
44920;BME280;30655;53.094;6.072;2022-12-18T08:51:35;102756.00;;;-4.87;92.01
44920;BME280;30655;53.094;6.072;2022-12-18T08:54:02;102711.22;;;-5.09;92.07
44920;BME280;30655;53.094;6.072;2022-12-18T08:56:33;102662.31;;;-5.24;92.19
44920;BME280;30655;53.094;6.072;2022-12-18T08:59:00;102812.81;;;-4.38;91.86
44920;BME280;30655;53.094;6.072;2022-12-18T09:01:28;102905.84;;;-3.69;92.79
44920;BME280;30655;53.094;6.072;2022-12-18T09:03:57;102897.53;;;-3.65;92.75
44920;BME280;30655;53.094;6.072;2022-12-18T09:06:25;102914.44;;;-3.56;92.16
44920;BME280;30655;53.094;6.072;2022-12-18T09:08:52;102872.69;;;-3.73;92.76
44920;BME280;30655;53.094;6.072;2022-12-18T09:11:22;102893.75;;;-3.51;92.58
44920;BME280;30655;53.094;6.072;2022-12-18T09:13:51;102912.22;;;-3.40;92.06
44920;BME280;30655;53.094;6.072;2022-12-18T09:16:20;102903.81;;;-3.34;91.36
44920;BME280;30655;53.094;6.072;2022-12-18T09:18:50;102904.25;;;-3.29;92.00
44920;BME280;30655;53.094;6.072;2022-12-18T09:21:19;102906.84;;;-3.18;91.59
44920;BME280;30655;53.094;6.072;2022-12-18T09:23:49;102908.84;;;-3.10;91.93
44920;BME280;30655;53.094;6.072;2022-12-18T09:26:16;102861.50;;;-3.34;92.27
44920;BME280;30655;53.094;6.072;2022-12-18T09:28:43;102881.94;;;-3.15;91.51
44920;BME280;30655;53.094;6.072;2022-12-18T09:31:13;102921.81;;;-2.86;91.44
44920;BME280;30655;53.094;6.072;2022-12-18T09:33:41;102887.25;;;-2.94;91.93
44920;BME280;30655;53.094;6.072;2022-12-18T09:36:09;102903.25;;;-2.75;91.84
44920;BME280;30655;53.094;6.072;2022-12-18T09:38:37;102914.66;;;-2.75;90.20
44920;BME280;30655;53.094;6.072;2022-12-18T09:41:19;102915.56;;;-2.65;91.01
44920;BME280;30655;53.094;6.072;2022-12-18T09:43:55;102913.22;;;-2.58;90.70
44920;BME280;30655;53.094;6.072;2022-12-18T09:46:28;102919.56;;;-2.49;91.12
44920;BME280;30655;53.094;6.072;2022-12-18T09:49:00;102903.06;;;-2.53;90.40
44920;BME280;30655;53.094;6.072;2022-12-18T09:51:32;102890.28;;;-2.48;91.38
44920;BME280;30655;53.094;6.072;2022-12-18T09:54:06;102897.53;;;-2.50;90.87
44920;BME280;30655;53.094;6.072;2022-12-18T09:56:35;102903.56;;;-2.38;90.04
44920;BME280;30655;53.094;6.072;2022-12-18T09:59:04;102898.13;;;-2.37;89.83
44920;BME280;30655;53.094;6.072;2022-12-18T10:01:33;102765.72;;;-3.17;89.95
44920;BME280;30655;53.094;6.072;2022-12-18T10:04:09;102871.19;;;-2.51;89.46
44920;BME280;30655;53.094;6.072;2022-12-18T10:06:41;102864.69;;;-2.38;89.53
44920;BME280;30655;53.094;6.072;2022-12-18T10:09:18;102856.88;;;-2.39;89.00
44920;BME280;30655;53.094;6.072;2022-12-18T10:11:53;102859.13;;;-2.35;89.57
44920;BME280;30655;53.094;6.072;2022-12-18T10:14:25;102837.16;;;-2.56;89.60
44920;BME280;30655;53.094;6.072;2022-12-18T10:17:00;102848.66;;;-2.36;89.44
44920;BME280;30655;53.094;6.072;2022-12-18T10:19:36;102839.59;;;-2.34;89.05
44920;BME280;30655;53.094;6.072;2022-12-18T10:22:13;102839.34;;;-2.31;89.33
44920;BME280;30655;53.094;6.072;2022-12-18T10:24:47;102842.69;;;-2.29;87.04
44920;BME280;30655;53.094;6.072;2022-12-18T10:27:18;102829.31;;;-2.27;87.64
44920;BME280;30655;53.094;6.072;2022-12-18T10:29:48;102808.44;;;-2.21;88.66
44920;BME280;30655;53.094;6.072;2022-12-18T10:32:18;102814.59;;;-2.10;87.97
44920;BME280;30655;53.094;6.072;2022-12-18T10:34:46;102801.34;;;-2.10;86.90
44920;BME280;30655;53.094;6.072;2022-12-18T10:37:16;102777.59;;;-2.22;87.38
44920;BME280;30655;53.094;6.072;2022-12-18T10:39:44;102797.72;;;-2.09;87.33
44920;BME280;30655;53.094;6.072;2022-12-18T10:42:16;102823.38;;;-2.00;87.86
44920;BME280;30655;53.094;6.072;2022-12-18T10:44:43;102809.16;;;-1.99;88.64
44920;BME280;30655;53.094;6.072;2022-12-18T10:47:14;102823.53;;;-1.92;88.21
44920;BME280;30655;53.094;6.072;2022-12-18T10:49:47;102822.69;;;-1.83;89.19
44920;BME280;30655;53.094;6.072;2022-12-18T10:52:18;102831.06;;;-1.78;88.55
44920;BME280;30655;53.094;6.072;2022-12-18T10:54:48;102833.88;;;-1.80;88.35
44920;BME280;30655;53.094;6.072;2022-12-18T10:57:34;102798.28;;;-1.87;88.46
44920;BME280;30655;53.094;6.072;2022-12-18T11:00:21;102806.94;;;-1.75;88.34
44920;BME280;30655;53.094;6.072;2022-12-18T11:02:48;102790.47;;;-1.69;89.31
44920;BME280;30655;53.094;6.072;2022-12-18T11:05:28;102799.53;;;-1.62;88.15
44920;BME280;30655;53.094;6.072;2022-12-18T11:07:57;102788.38;;;-1.56;88.68
44920;BME280;30655;53.094;6.072;2022-12-18T11:10:28;102659.53;;;-2.34;88.03
44920;BME280;30655;53.094;6.072;2022-12-18T11:12:56;102774.72;;;-1.61;87.93
44920;BME280;30655;53.094;6.072;2022-12-18T11:15:34;102776.66;;;-1.53;88.01
44920;BME280;30655;53.094;6.072;2022-12-18T11:18:01;102620.09;;;-2.56;87.00
44920;BME280;30655;53.094;6.072;2022-12-18T11:20:34;102794.78;;;-1.49;87.39
44920;BME280;30655;53.094;6.072;2022-12-18T11:23:04;102757.41;;;-1.65;87.63
44920;BME280;30655;53.094;6.072;2022-12-18T11:25:32;102792.28;;;-1.50;86.80
44920;BME280;30655;53.094;6.072;2022-12-18T11:28:05;102738.44;;;-1.70;87.16
44920;BME280;30655;53.094;6.072;2022-12-18T11:30:34;102773.03;;;-1.52;87.44
44920;BME280;30655;53.094;6.072;2022-12-18T11:33:04;102766.84;;;-1.43;86.82
44920;BME280;30655;53.094;6.072;2022-12-18T11:35:48;102765.47;;;-1.47;86.64
44920;BME280;30655;53.094;6.072;2022-12-18T11:38:21;102761.56;;;-1.53;86.17
44920;BME280;30655;53.094;6.072;2022-12-18T11:40:52;102769.94;;;-1.38;86.61
44920;BME280;30655;53.094;6.072;2022-12-18T11:43:27;102741.75;;;-1.49;86.25
44920;BME280;30655;53.094;6.072;2022-12-18T11:45:59;102749.00;;;-1.41;86.37
44920;BME280;30655;53.094;6.072;2022-12-18T11:48:32;102741.44;;;-1.36;86.17
44920;BME280;30655;53.094;6.072;2022-12-18T11:51:03;102735.59;;;-1.40;85.73
44920;BME280;30655;53.094;6.072;2022-12-18T11:53:34;102749.38;;;-1.26;86.48
44920;BME280;30655;53.094;6.072;2022-12-18T11:56:08;102740.28;;;-1.24;86.32
44920;BME280;30655;53.094;6.072;2022-12-18T11:58:46;102722.56;;;-1.23;85.45
44920;BME280;30655;53.094;6.072;2022-12-18T12:01:31;102711.94;;;-1.23;85.51
44920;BME280;30655;53.094;6.072;2022-12-18T12:04:26;102529.75;;;-2.34;84.99
44920;BME280;30655;53.094;6.072;2022-12-18T12:07:03;102532.81;;;-2.29;85.27
44920;BME280;30655;53.094;6.072;2022-12-18T12:09:36;102561.50;;;-2.05;85.24
44920;BME280;30655;53.094;6.072;2022-12-18T12:12:34;102541.97;;;-2.13;86.11
44920;BME280;30655;53.094;6.072;2022-12-18T12:15:29;102637.06;;;-1.45;85.11
44920;BME280;30655;53.094;6.072;2022-12-18T12:18:06;102518.94;;;-2.03;85.56
44920;BME280;30655;53.094;6.072;2022-12-18T12:20:46;102504.78;;;-2.22;84.82
44920;BME280;30655;53.094;6.072;2022-12-18T12:23:24;102577.72;;;-1.71;84.27
44920;BME280;30655;53.094;6.072;2022-12-18T12:25:59;102662.59;;;-1.07;85.41
44920;BME280;30655;53.094;6.072;2022-12-18T12:28:44;102500.44;;;-2.13;84.66
44920;BME280;30655;53.094;6.072;2022-12-18T12:31:28;102499.72;;;-2.05;84.19
44920;BME280;30655;53.094;6.072;2022-12-18T12:34:03;102635.31;;;-0.99;85.10
44920;BME280;30655;53.094;6.072;2022-12-18T12:36:38;102613.47;;;-1.11;85.07
44920;BME280;30655;53.094;6.072;2022-12-18T12:39:13;102414.44;;;-2.19;85.19
44920;BME280;30655;53.094;6.072;2022-12-18T12:41:43;102428.22;;;-2.05;84.25
44920;BME280;30655;53.094;6.072;2022-12-18T12:44:17;102391.66;;;-2.29;82.81
44920;BME280;30655;53.094;6.072;2022-12-18T12:46:48;102545.31;;;-1.38;83.87
44920;BME280;30655;53.094;6.072;2022-12-18T12:49:19;102537.47;;;-1.29;84.22
44920;BME280;30655;53.094;6.072;2022-12-18T12:51:55;102561.16;;;-1.01;84.23
44920;BME280;30655;53.094;6.072;2022-12-18T12:54:37;102615.13;;;-0.65;84.58
44920;BME280;30655;53.094;6.072;2022-12-18T12:57:15;102538.66;;;-1.24;83.33
44920;BME280;30655;53.094;6.072;2022-12-18T13:03:23;102470.66;;;-1.43;84.12
44920;BME280;30655;53.094;6.072;2022-12-18T13:06:05;102626.81;;;-0.58;83.41
44920;BME280;30655;53.094;6.072;2022-12-18T13:08:57;102572.31;;;-0.79;82.27
44920;BME280;30655;53.094;6.072;2022-12-18T13:11:40;102591.06;;;-0.81;82.77
44920;BME280;30655;53.094;6.072;2022-12-18T13:14:28;102587.19;;;-0.69;82.82
44920;BME280;30655;53.094;6.072;2022-12-18T13:20:17;102418.94;;;-1.74;82.53
44920;BME280;30655;53.094;6.072;2022-12-18T13:26:33;102587.72;;;-0.48;82.92
44920;BME280;30655;53.094;6.072;2022-12-18T13:29:42;102334.19;;;-2.01;82.79
44920;BME280;30655;53.094;6.072;2022-12-18T13:32:25;102405.22;;;-1.60;81.75
44920;BME280;30655;53.094;6.072;2022-12-18T13:35:38;102587.13;;;-0.41;82.40
44920;BME280;30655;53.094;6.072;2022-12-18T13:38:20;102551.22;;;-0.63;82.96
44920;BME280;30655;53.094;6.072;2022-12-18T13:41:20;102460.03;;;-1.15;80.71
44920;BME280;30655;53.094;6.072;2022-12-18T13:43:53;102425.59;;;-1.43;82.08
44920;BME280;30655;53.094;6.072;2022-12-18T13:46:23;102489.56;;;-0.93;82.60
44920;BME280;30655;53.094;6.072;2022-12-18T13:49:30;102364.91;;;-1.81;81.16
44920;BME280;30655;53.094;6.072;2022-12-18T13:52:43;102417.50;;;-1.41;81.52
44920;BME280;30655;53.094;6.072;2022-12-18T13:55:19;102587.34;;;-0.35;81.63
44920;BME280;30655;53.094;6.072;2022-12-18T13:58:25;102520.66;;;-0.67;81.44
44920;BME280;30655;53.094;6.072;2022-12-18T14:01:21;102566.91;;;-0.34;81.72